Terminal Aerodrome Forecast
Issued by NWS

Home | Current Version | Previous Version | Text Only | Print | Product List | Glossary On
Versions: 1 2 3 4 5 6 7 8 9 10 11 12 13 14 15 16 17 18
000
FTUS43 KGLD 232340
TAFMCK
TAF
KMCK 232340Z 2400/2424 36015G22KT 6SM -SN BR OVC015
     FM240100 36016G24KT 1SM -SHSN OVC020
     FM240400 36012G21KT 3SM -SN BR OVC015
     FM240700 35013G21KT P6SM VCSH OVC008
     FM241300 34016G28KT 2SM -SN OVC015
     FM241500 34019G30KT 1SM -SN OVC008
     FM241800 34020G31KT P6SM OVC008
     FM242300 34016G27KT P6SM BKN040=

USA.gov is the U.S. government's official web portal to all federal, state and local government web resources and services.